createdAt,value
2023-03-02T00:02:15.991Z,17.40
2023-03-02T00:04:51.213Z,17.40
2023-03-02T00:07:28.418Z,17.40
2023-03-02T00:09:55.526Z,17.40
2023-03-02T00:12:22.276Z,17.40
2023-03-02T00:14:48.953Z,17.40
2023-03-02T00:17:15.687Z,17.40
2023-03-02T00:19:42.413Z,17.40
2023-03-02T00:22:10.999Z,17.40
2023-03-02T00:24:37.811Z,17.40
2023-03-02T00:27:04.525Z,17.40
2023-03-02T00:29:31.182Z,17.40
2023-03-02T00:31:57.879Z,17.40
2023-03-02T00:34:24.602Z,17.40
2023-03-02T00:36:51.309Z,17.40
2023-03-02T00:39:19.959Z,17.40
2023-03-02T00:41:47.396Z,17.40
2023-03-02T00:44:17.436Z,17.40
2023-03-02T00:46:45.067Z,17.40
2023-03-02T00:49:12.768Z,17.40
2023-03-02T00:51:39.587Z,17.40
2023-03-02T00:54:06.675Z,17.40
2023-03-02T00:56:34.164Z,17.40
2023-03-02T00:59:07.290Z,17.40
2023-03-02T01:01:34.562Z,17.40
2023-03-02T01:04:01.324Z,17.40
2023-03-02T01:06:28.103Z,17.40
2023-03-02T01:08:54.900Z,17.40
2023-03-02T01:11:23.191Z,17.40
2023-03-02T01:13:51.356Z,17.40
2023-03-02T01:16:18.425Z,17.40
2023-03-02T01:18:45.331Z,17.40
2023-03-02T01:21:14.595Z,17.40
2023-03-02T01:23:41.296Z,17.40
2023-03-02T01:26:08.145Z,17.40
2023-03-02T01:28:34.905Z,17.40
2023-03-02T01:31:03.145Z,17.40
2023-03-02T01:33:30.387Z,17.40
2023-03-02T01:35:57.116Z,17.40
2023-03-02T01:38:23.894Z,17.40
2023-03-02T01:40:50.664Z,17.40
2023-03-02T01:43:17.437Z,17.40
2023-03-02T01:45:47.384Z,17.40
2023-03-02T01:48:23.828Z,17.40
2023-03-02T01:50:51.963Z,17.40
2023-03-02T01:53:22.592Z,17.40
2023-03-02T01:55:49.423Z,17.40
2023-03-02T01:58:17.308Z,17.40
2023-03-02T02:00:44.799Z,17.40
2023-03-02T02:03:20.936Z,17.40
2023-03-02T02:06:00.108Z,17.40
2023-03-02T02:08:27.962Z,17.40
2023-03-02T02:10:55.166Z,17.40
2023-03-02T02:13:21.980Z,17.40
2023-03-02T02:15:48.723Z,17.40
2023-03-02T02:18:15.440Z,17.40
2023-03-02T02:20:45.321Z,17.40
2023-03-02T02:23:39.695Z,17.40
2023-03-02T02:26:26.757Z,17.40
2023-03-02T02:29:02.233Z,17.40
2023-03-02T02:31:45.395Z,17.40
2023-03-02T02:34:24.232Z,17.40
2023-03-02T02:36:56.311Z,17.40
2023-03-02T02:39:34.315Z,17.40
2023-03-02T02:42:04.886Z,17.40
2023-03-02T02:44:32.272Z,17.40
2023-03-02T02:47:00.153Z,17.40
2023-03-02T02:49:39.150Z,17.30
2023-03-02T02:52:06.890Z,17.40
2023-03-02T02:54:36.264Z,17.40
2023-03-02T02:57:04.691Z,17.40
2023-03-02T02:59:43.515Z,17.40
2023-03-02T03:02:28.073Z,17.40
2023-03-02T03:05:02.877Z,17.40
2023-03-02T03:07:32.577Z,17.30
2023-03-02T03:10:15.196Z,17.30
2023-03-02T03:12:42.584Z,17.30
2023-03-02T03:15:10.122Z,17.40
2023-03-02T03:17:36.938Z,17.40
2023-03-02T03:20:08.950Z,17.40
2023-03-02T03:22:38.902Z,17.40
2023-03-02T03:25:07.866Z,17.40
2023-03-02T03:27:34.754Z,17.40
2023-03-02T03:30:03.376Z,17.30
2023-03-02T03:32:35.422Z,17.40
2023-03-02T03:35:03.537Z,17.40
2023-03-02T03:37:32.434Z,17.40
2023-03-02T03:39:59.747Z,17.40
2023-03-02T03:42:27.106Z,17.40
2023-03-02T03:44:55.244Z,17.30
2023-03-02T03:47:22.658Z,17.40
2023-03-02T03:49:50.933Z,17.30
2023-03-02T03:52:17.948Z,17.40
2023-03-02T03:54:44.679Z,17.40
2023-03-02T03:57:12.096Z,17.40
2023-03-02T03:59:39.202Z,17.40
2023-03-02T04:02:06.563Z,17.30
2023-03-02T04:04:39.971Z,17.40
2023-03-02T04:07:11.240Z,17.40
2023-03-02T04:09:39.203Z,17.40
2023-03-02T04:12:09.137Z,17.40
2023-03-02T04:14:37.190Z,17.40
2023-03-02T04:17:05.457Z,17.40
2023-03-02T04:19:35.447Z,17.40
2023-03-02T04:22:04.010Z,17.40
2023-03-02T04:24:31.930Z,17.40
2023-03-02T04:27:01.569Z,17.30
2023-03-02T04:29:28.901Z,17.40
2023-03-02T04:31:55.775Z,17.40
2023-03-02T04:34:27.361Z,17.40
2023-03-02T04:36:55.995Z,17.40
2023-03-02T04:39:23.557Z,17.40
2023-03-02T04:41:51.950Z,17.30
2023-03-02T04:44:20.282Z,17.30
2023-03-02T04:46:48.057Z,17.30
2023-03-02T04:49:15.720Z,17.40
2023-03-02T04:51:45.672Z,17.30
2023-03-02T04:54:19.642Z,17.30
2023-03-02T04:56:49.517Z,17.40
2023-03-02T04:59:17.975Z,17.40
2023-03-02T05:01:45.426Z,17.40
2023-03-02T05:04:12.324Z,17.40
2023-03-02T05:06:39.360Z,17.40
2023-03-02T05:09:06.662Z,17.30
2023-03-02T05:11:34.089Z,17.40
2023-03-02T05:14:03.626Z,17.30
2023-03-02T05:16:33.318Z,17.40
2023-03-02T05:19:01.923Z,17.40
2023-03-02T05:21:28.724Z,17.40
2023-03-02T05:23:55.449Z,17.40
2023-03-02T05:26:22.482Z,17.40
2023-03-02T05:28:49.343Z,17.40
2023-03-02T05:31:27.784Z,17.40
2023-03-02T05:33:54.680Z,17.40
2023-03-02T05:36:23.399Z,17.40
2023-03-02T05:38:50.194Z,17.40
2023-03-02T05:41:16.946Z,17.30
2023-03-02T05:43:43.935Z,17.40
2023-03-02T05:46:10.659Z,17.30
2023-03-02T05:48:37.722Z,17.40
2023-03-02T05:51:04.779Z,17.40
2023-03-02T05:53:31.418Z,17.40
2023-03-02T05:55:58.130Z,17.40
2023-03-02T05:58:24.790Z,17.30
2023-03-02T06:00:52.318Z,17.40
2023-03-02T06:03:19.064Z,17.40
2023-03-02T06:05:50.971Z,17.30
2023-03-02T06:08:19.026Z,17.40
2023-03-02T06:10:45.860Z,17.40
2023-03-02T06:13:12.592Z,17.40
2023-03-02T06:15:40.543Z,17.30
2023-03-02T06:18:07.376Z,17.40
2023-03-02T06:20:34.217Z,17.40
2023-03-02T06:23:01.120Z,17.40
2023-03-02T06:25:27.982Z,17.40
2023-03-02T06:27:54.801Z,17.40
2023-03-02T06:30:24.800Z,17.40
2023-03-02T06:32:51.995Z,17.40
2023-03-02T06:35:18.926Z,17.40
2023-03-02T06:37:45.840Z,17.30
2023-03-02T06:40:13.940Z,17.40
2023-03-02T06:42:42.075Z,17.30
2023-03-02T06:45:09.725Z,17.40
2023-03-02T06:47:36.497Z,17.40
2023-03-02T06:50:03.884Z,17.40
2023-03-02T06:52:30.849Z,17.40
2023-03-02T06:54:57.575Z,17.40
2023-03-02T06:57:24.389Z,17.40
2023-03-02T06:59:51.254Z,17.40
2023-03-02T07:02:18.058Z,17.40
2023-03-02T07:04:44.713Z,17.40
2023-03-02T07:07:11.419Z,17.60
2023-03-02T07:09:38.117Z,17.50
2023-03-02T07:12:04.916Z,17.50
2023-03-02T07:14:31.918Z,17.50
2023-03-02T07:17:00.042Z,17.50
2023-03-02T07:19:26.795Z,17.50
2023-03-02T07:21:53.475Z,17.40
2023-03-02T07:24:20.167Z,17.00
2023-03-02T07:26:46.964Z,16.30
2023-03-02T07:29:13.631Z,15.80
2023-03-02T07:31:40.417Z,15.60
2023-03-02T07:34:07.112Z,15.70
2023-03-02T07:36:33.753Z,16.10
2023-03-02T07:39:03.284Z,16.40
2023-03-02T07:41:30.110Z,16.70
2023-03-02T07:43:56.889Z,16.90
2023-03-02T07:46:23.581Z,17.00
2023-03-02T07:48:50.368Z,17.00
2023-03-02T07:51:17.028Z,17.10
2023-03-02T07:53:43.756Z,17.20
2023-03-02T07:56:11.693Z,17.20
2023-03-02T07:58:38.738Z,17.30
2023-03-02T08:01:05.614Z,17.30
2023-03-02T08:03:32.309Z,17.30
2023-03-02T08:05:58.977Z,17.40
2023-03-02T08:08:25.667Z,17.40
2023-03-02T08:10:52.317Z,17.50
2023-03-02T08:13:18.997Z,17.60
2023-03-02T08:15:45.672Z,17.60
2023-03-02T08:18:12.427Z,17.50
2023-03-02T08:20:39.178Z,17.60
2023-03-02T08:23:05.891Z,17.60
2023-03-02T08:25:32.624Z,17.60
2023-03-02T08:27:59.282Z,17.60
2023-03-02T08:30:25.989Z,17.60
2023-03-02T08:32:52.667Z,17.60
2023-03-02T08:35:19.402Z,17.60
2023-03-02T08:37:46.140Z,17.60
2023-03-02T08:40:13.101Z,17.70
2023-03-02T08:42:39.814Z,17.70
2023-03-02T08:45:07.157Z,17.80
2023-03-02T08:47:34.141Z,17.90
2023-03-02T08:50:01.041Z,18.00
2023-03-02T08:52:27.759Z,18.10
2023-03-02T08:54:54.522Z,18.20
2023-03-02T08:57:21.464Z,18.30
2023-03-02T08:59:48.174Z,18.40
2023-03-02T09:02:14.890Z,18.40
2023-03-02T09:04:41.849Z,18.50
2023-03-02T09:07:08.943Z,18.50
2023-03-02T09:09:35.889Z,18.60
2023-03-02T09:12:02.604Z,18.70
2023-03-02T09:14:29.300Z,18.70
2023-03-02T09:16:56.061Z,18.80
2023-03-02T09:19:22.778Z,18.80
2023-03-02T09:21:49.775Z,18.80
2023-03-02T09:24:16.475Z,18.90
2023-03-02T09:26:43.153Z,18.90
2023-03-02T09:29:10.168Z,19.00
2023-03-02T09:31:37.642Z,19.00
2023-03-02T09:34:05.354Z,19.00
2023-03-02T09:36:32.734Z,19.00
2023-03-02T09:38:59.547Z,19.00
2023-03-02T09:41:41.405Z,19.00
2023-03-02T09:44:33.840Z,19.00
2023-03-02T09:47:04.742Z,19.10
2023-03-02T09:50:03.710Z,19.20
2023-03-02T09:52:40.899Z,19.20
2023-03-02T09:55:20.309Z,19.20
2023-03-02T09:57:47.408Z,19.20
2023-03-02T10:00:28.098Z,19.20
2023-03-02T10:03:02.470Z,19.20
2023-03-02T10:05:41.135Z,19.20
2023-03-02T10:08:20.699Z,19.30
2023-03-02T10:11:00.028Z,19.20
2023-03-02T10:13:32.843Z,19.20
2023-03-02T10:16:20.473Z,19.20
2023-03-02T10:19:10.534Z,19.10
2023-03-02T10:21:47.313Z,19.10
2023-03-02T10:24:22.850Z,19.10
2023-03-02T10:27:01.438Z,19.00
2023-03-02T10:29:28.066Z,19.00
2023-03-02T10:32:03.853Z,19.00
2023-03-02T10:34:31.247Z,19.00
2023-03-02T10:36:58.462Z,19.00
2023-03-02T10:39:25.242Z,18.90
2023-03-02T10:42:04.496Z,18.90
2023-03-02T10:44:38.557Z,18.90
2023-03-02T10:47:07.503Z,18.90
2023-03-02T10:49:36.586Z,18.80
2023-03-02T10:52:15.296Z,18.80
2023-03-02T10:54:42.653Z,18.80
2023-03-02T10:57:30.813Z,18.80
2023-03-02T11:00:22.274Z,18.80
2023-03-02T11:02:51.429Z,18.80
2023-03-02T11:05:30.274Z,18.70
2023-03-02T11:08:00.095Z,18.70
2023-03-02T11:10:37.024Z,18.70
2023-03-02T11:13:26.506Z,18.70
2023-03-02T11:16:01.459Z,18.70
2023-03-02T11:18:30.934Z,18.70
2023-03-02T11:21:05.666Z,18.70
2023-03-02T11:23:49.455Z,18.60
2023-03-02T11:26:35.505Z,18.60
2023-03-02T11:29:10.298Z,18.60
2023-03-02T11:32:02.099Z,18.60
2023-03-02T11:34:39.207Z,18.60
2023-03-02T11:37:18.261Z,18.60
2023-03-02T11:39:55.222Z,18.60
2023-03-02T11:42:30.685Z,18.60
2023-03-02T11:45:01.568Z,18.50
2023-03-02T11:47:31.245Z,18.50
2023-03-02T11:50:05.282Z,18.50
2023-03-02T11:52:46.422Z,18.50
2023-03-02T11:55:13.072Z,18.50
2023-03-02T11:57:48.500Z,18.40
2023-03-02T12:00:26.908Z,18.40
2023-03-02T12:03:02.989Z,18.40
2023-03-02T12:05:35.544Z,18.40
2023-03-02T12:08:31.088Z,18.40
2023-03-02T12:11:02.329Z,18.40
2023-03-02T12:13:33.317Z,18.40
2023-03-02T12:16:00.366Z,18.40
2023-03-02T12:18:42.122Z,18.40
2023-03-02T12:21:27.016Z,18.40
2023-03-02T12:23:58.319Z,18.40
2023-03-02T12:26:32.455Z,18.40
2023-03-02T12:29:04.699Z,18.40
2023-03-02T12:31:43.494Z,18.30
2023-03-02T12:34:34.075Z,18.30
2023-03-02T12:37:07.327Z,18.30
2023-03-02T12:40:11.042Z,18.30
2023-03-02T12:42:59.576Z,18.30
2023-03-02T12:45:41.271Z,18.30
2023-03-02T12:48:23.864Z,18.30
2023-03-02T12:50:54.250Z,18.30
2023-03-02T12:53:21.287Z,18.30
2023-03-02T12:55:48.049Z,18.30
2023-03-02T12:58:21.846Z,18.30
2023-03-02T13:01:00.703Z,18.30
2023-03-02T13:03:29.990Z,18.30
2023-03-02T13:06:10.955Z,18.30
2023-03-02T13:08:37.697Z,18.30
2023-03-02T13:11:04.822Z,18.30
2023-03-02T13:13:43.661Z,18.30
2023-03-02T13:16:21.723Z,18.30
2023-03-02T13:18:49.919Z,18.30
2023-03-02T13:21:18.688Z,18.30
2023-03-02T13:23:48.746Z,18.30
2023-03-02T13:26:35.179Z,18.30
2023-03-02T13:29:20.616Z,18.30
2023-03-02T13:31:47.429Z,18.30
2023-03-02T13:34:23.140Z,18.30
2023-03-02T13:36:50.747Z,18.30
2023-03-02T13:39:35.600Z,18.30
2023-03-02T13:42:03.500Z,18.30
2023-03-02T13:44:35.126Z,18.20
2023-03-02T13:47:02.324Z,18.20
2023-03-02T13:49:31.195Z,18.20
2023-03-02T13:52:07.028Z,18.30
2023-03-02T13:54:36.718Z,18.20
2023-03-02T13:57:05.229Z,18.20
2023-03-02T13:59:36.283Z,18.30
2023-03-02T14:02:03.331Z,18.20
2023-03-02T14:04:30.286Z,18.30
2023-03-02T14:06:57.161Z,18.30
2023-03-02T14:09:23.882Z,18.30
2023-03-02T14:11:53.158Z,18.30
2023-03-02T14:14:23.228Z,18.30
2023-03-02T14:16:50.762Z,18.30
2023-03-02T14:19:18.500Z,18.30
2023-03-02T14:21:46.550Z,18.30
2023-03-02T14:24:13.455Z,18.30
2023-03-02T14:26:47.089Z,18.30
2023-03-02T14:29:26.794Z,18.30
2023-03-02T14:32:00.111Z,18.30
2023-03-02T14:34:26.975Z,18.30
2023-03-02T14:36:56.639Z,18.30
2023-03-02T14:39:27.497Z,18.30
2023-03-02T14:41:54.994Z,18.30
2023-03-02T14:44:22.940Z,18.30
2023-03-02T14:46:49.882Z,18.30
2023-03-02T14:49:16.783Z,18.30
2023-03-02T14:51:47.354Z,18.30
2023-03-02T14:54:18.266Z,18.30
2023-03-02T14:56:45.307Z,18.30
2023-03-02T14:59:15.420Z,18.30
2023-03-02T15:01:44.465Z,18.30
2023-03-02T15:04:11.269Z,18.30
2023-03-02T15:06:41.075Z,18.30
2023-03-02T15:09:08.396Z,18.30
2023-03-02T15:11:35.465Z,18.30
2023-03-02T15:14:02.524Z,18.30
2023-03-02T15:16:29.476Z,18.30
2023-03-02T15:18:58.742Z,18.30
2023-03-02T15:21:25.668Z,18.30
2023-03-02T15:23:52.669Z,18.30
2023-03-02T15:26:19.503Z,18.30
2023-03-02T15:28:50.082Z,18.30
2023-03-02T15:31:17.321Z,18.30
2023-03-02T15:33:47.339Z,18.30
2023-03-02T15:36:14.376Z,18.30
2023-03-02T15:38:41.531Z,18.30
2023-03-02T15:41:12.946Z,18.20
2023-03-02T15:43:39.947Z,18.30
2023-03-02T15:46:09.238Z,18.20
2023-03-02T15:48:37.087Z,18.30
2023-03-02T15:51:06.451Z,18.20
2023-03-02T15:53:37.747Z,18.20
2023-03-02T15:56:10.499Z,18.20
2023-03-02T15:58:37.495Z,18.20
2023-03-02T16:01:08.915Z,18.20
2023-03-02T16:03:36.072Z,18.20
2023-03-02T16:06:03.286Z,18.20
2023-03-02T16:08:29.987Z,18.20
2023-03-02T16:11:02.077Z,18.20
2023-03-02T16:13:32.494Z,18.20
2023-03-02T16:16:04.895Z,18.20
2023-03-02T16:18:32.460Z,18.20
2023-03-02T16:20:59.223Z,18.20
2023-03-02T16:23:26.334Z,18.20
2023-03-02T16:25:53.048Z,18.20
2023-03-02T16:28:20.866Z,18.20
2023-03-02T16:30:47.603Z,18.20
2023-03-02T16:33:17.606Z,18.20
2023-03-02T16:35:44.476Z,18.20
2023-03-02T16:38:11.275Z,18.20
2023-03-02T16:40:40.100Z,18.20
2023-03-02T16:43:09.114Z,18.20
2023-03-02T16:45:36.174Z,18.20
2023-03-02T16:48:03.917Z,18.20
2023-03-02T16:50:30.696Z,18.20
2023-03-02T16:52:58.994Z,18.20
2023-03-02T16:55:26.467Z,18.20
2023-03-02T16:57:53.468Z,18.20
2023-03-02T17:00:22.017Z,18.20
2023-03-02T17:02:49.429Z,18.20
2023-03-02T17:05:18.652Z,18.20
2023-03-02T17:07:45.682Z,18.20
2023-03-02T17:10:16.047Z,18.20
2023-03-02T17:12:42.847Z,18.10
2023-03-02T17:15:13.552Z,18.20
2023-03-02T17:17:41.049Z,18.10
2023-03-02T17:20:10.332Z,18.10
2023-03-02T17:22:37.065Z,18.10
2023-03-02T17:25:07.065Z,18.10
2023-03-02T17:27:33.739Z,18.10
2023-03-02T17:30:00.437Z,18.10
2023-03-02T17:32:27.234Z,18.10
2023-03-02T17:34:54.260Z,18.10
2023-03-02T17:37:21.137Z,18.10
2023-03-02T17:39:50.392Z,18.10
2023-03-02T17:42:17.072Z,18.10
2023-03-02T17:44:44.960Z,18.10
2023-03-02T17:47:14.788Z,18.10
2023-03-02T17:49:45.058Z,18.10
2023-03-02T17:52:13.205Z,18.10
2023-03-02T17:54:39.889Z,18.10
2023-03-02T17:57:06.715Z,18.10
2023-03-02T17:59:33.620Z,18.10
2023-03-02T18:02:00.587Z,18.10
2023-03-02T18:04:27.445Z,18.10
2023-03-02T18:06:54.387Z,18.00
2023-03-02T18:09:21.185Z,18.10
2023-03-02T18:11:48.087Z,18.10
2023-03-02T18:14:17.974Z,18.10
2023-03-02T18:16:45.151Z,18.10
2023-03-02T18:19:11.923Z,18.10
2023-03-02T18:21:40.064Z,18.10
2023-03-02T18:24:07.583Z,18.10
2023-03-02T18:26:34.381Z,18.10
2023-03-02T18:29:01.056Z,18.10
2023-03-02T18:31:28.427Z,18.10
2023-03-02T18:33:55.222Z,18.10
2023-03-02T18:36:21.941Z,18.10
2023-03-02T18:38:48.668Z,18.10
2023-03-02T18:41:15.430Z,18.10
2023-03-02T18:43:43.102Z,18.00
2023-03-02T18:46:22.179Z,18.10
2023-03-02T18:48:50.235Z,18.10
2023-03-02T18:51:21.689Z,18.00
2023-03-02T18:53:49.033Z,18.10
2023-03-02T18:56:15.861Z,18.00
2023-03-02T18:58:42.543Z,18.10
2023-03-02T19:01:09.370Z,18.00
2023-03-02T19:03:38.554Z,18.00
2023-03-02T19:06:07.349Z,18.10
2023-03-02T19:08:35.661Z,18.00
2023-03-02T19:11:03.233Z,18.00
2023-03-02T19:13:29.921Z,18.00
2023-03-02T19:15:57.107Z,18.00
2023-03-02T19:18:25.695Z,18.00
2023-03-02T19:20:54.331Z,18.00
2023-03-02T19:23:21.123Z,18.10
2023-03-02T19:25:47.919Z,18.10
2023-03-02T19:28:14.985Z,18.00
2023-03-02T19:30:41.689Z,18.00
2023-03-02T19:33:09.746Z,18.00
2023-03-02T19:35:37.774Z,18.00
2023-03-02T19:38:05.777Z,18.00
2023-03-02T19:40:32.601Z,18.00
2023-03-02T19:42:59.376Z,18.00
2023-03-02T19:45:29.387Z,18.00
2023-03-02T19:47:57.875Z,18.00
2023-03-02T19:50:25.687Z,18.00
2023-03-02T19:52:54.706Z,18.00
2023-03-02T19:55:24.124Z,18.00
2023-03-02T19:57:56.530Z,18.00
2023-03-02T20:00:24.152Z,18.00
2023-03-02T20:02:51.169Z,18.00
2023-03-02T20:05:17.989Z,18.00
2023-03-02T20:07:45.047Z,18.00
2023-03-02T20:10:24.039Z,18.00
2023-03-02T20:12:50.716Z,18.00
2023-03-02T20:15:17.645Z,18.00
2023-03-02T20:17:44.596Z,18.00
2023-03-02T20:20:12.233Z,18.00
2023-03-02T20:22:38.914Z,18.00
2023-03-02T20:25:06.357Z,18.00
2023-03-02T20:27:33.138Z,18.00
2023-03-02T20:29:59.958Z,18.00
2023-03-02T20:32:26.979Z,18.00
2023-03-02T20:34:53.730Z,18.00
2023-03-02T20:37:22.521Z,18.00
2023-03-02T20:39:49.518Z,18.00
2023-03-02T20:42:16.233Z,18.00
2023-03-02T20:44:43.077Z,18.00
2023-03-02T20:47:15.507Z,18.00
2023-03-02T20:49:42.567Z,18.00
2023-03-02T20:52:09.929Z,18.00
2023-03-02T20:54:40.631Z,18.00
2023-03-02T20:57:08.597Z,18.00
2023-03-02T20:59:37.416Z,18.00
2023-03-02T21:02:05.196Z,18.00
2023-03-02T21:04:33.195Z,18.00
2023-03-02T21:06:59.923Z,18.00
2023-03-02T21:09:26.663Z,18.00
2023-03-02T21:11:53.462Z,18.00
2023-03-02T21:14:20.382Z,18.00
2023-03-02T21:16:47.154Z,18.00
2023-03-02T21:19:17.220Z,18.00
2023-03-02T21:21:44.653Z,18.00
2023-03-02T21:24:16.736Z,18.00
2023-03-02T21:26:45.078Z,18.00
2023-03-02T21:29:12.971Z,18.00
2023-03-02T21:31:43.808Z,18.00
2023-03-02T21:34:15.905Z,18.00
2023-03-02T21:36:43.238Z,18.00
2023-03-02T21:39:11.771Z,18.00
2023-03-02T21:41:38.536Z,18.00
2023-03-02T21:44:05.783Z,18.00
2023-03-02T21:46:34.935Z,18.00
2023-03-02T21:49:01.688Z,18.00
2023-03-02T21:51:28.431Z,18.00
2023-03-02T21:53:55.108Z,18.10
2023-03-02T21:56:24.936Z,18.00
2023-03-02T21:58:54.949Z,18.00
2023-03-02T22:01:22.590Z,18.00
2023-03-02T22:03:50.139Z,18.00
2023-03-02T22:06:19.184Z,18.00
2023-03-02T22:08:45.895Z,18.00
2023-03-02T22:11:22.983Z,18.00
2023-03-02T22:13:56.236Z,18.00
2023-03-02T22:16:28.853Z,18.00
2023-03-02T22:18:58.474Z,18.00
2023-03-02T22:21:25.237Z,18.00
2023-03-02T22:23:56.705Z,18.00
2023-03-02T22:26:23.374Z,18.00
2023-03-02T22:28:50.666Z,18.00
2023-03-02T22:31:22.130Z,18.00
2023-03-02T22:33:49.821Z,18.00
2023-03-02T22:36:21.420Z,18.00
2023-03-02T22:38:48.376Z,18.00
2023-03-02T22:41:18.555Z,18.00
2023-03-02T22:43:46.235Z,18.00
2023-03-02T22:46:17.384Z,18.00
2023-03-02T22:48:46.833Z,18.00
2023-03-02T22:51:15.440Z,18.00
2023-03-02T22:53:52.795Z,18.00
2023-03-02T22:56:36.828Z,18.00
2023-03-02T22:59:19.523Z,18.00
2023-03-02T23:01:46.261Z,18.00
2023-03-02T23:04:22.492Z,18.00
2023-03-02T23:06:49.166Z,18.00
2023-03-02T23:09:23.872Z,18.00
2023-03-02T23:11:57.187Z,18.00
2023-03-02T23:14:48.973Z,18.00
2023-03-02T23:17:23.976Z,18.00
2023-03-02T23:19:51.251Z,18.00
2023-03-02T23:22:18.252Z,18.00
2023-03-02T23:24:44.989Z,18.00
2023-03-02T23:27:11.896Z,18.00
2023-03-02T23:29:38.691Z,18.00
2023-03-02T23:32:05.691Z,18.00
2023-03-02T23:34:32.397Z,18.00
2023-03-02T23:36:59.822Z,18.00
2023-03-02T23:39:26.705Z,18.00
2023-03-02T23:41:53.459Z,17.90
2023-03-02T23:44:20.409Z,18.00
2023-03-02T23:46:47.888Z,18.00
2023-03-02T23:49:14.834Z,18.00
2023-03-02T23:51:41.485Z,18.00
2023-03-02T23:54:08.265Z,17.90
2023-03-02T23:56:35.136Z,18.00
2023-03-02T23:59:02.463Z,18.00
